International Virtual Aviation Organisation

Russian Federation and Kazakhstan MCD

 
UUYY 281330Z 02002MPS 4300 BR NSC M14/M15 Q1041 R18/420250 NOSIG RMK QFE772/1029
QNH:(hPa/inHg/mmHg)1041 / 30.74 / 781
QFE:(hPa/inHg/mmHg)1028 / 30.37 / 771
Temperature-14
Dew Point-15
Visibility4300
WeatherMist
Cloud Cover
Transition Height700 m./2700 ft.
Transition LevelFL40
SQUAWK